Time;durP1;ratioP1;P1;durP2;ratioP2;P2;SDS_P1;SDS_P2;PMS_P1;PMS_P2;Temp;Humidity;BMP_temperature;BMP_pressure;BME280_temperature;BME280_humidity;BME280_pressure;Samples;Min_cycle;Max_cycle;Signal;HPM_P1;HPM_P2
2022/09/17 08:01:50;;;;;;;5.72;2.83;;;;;;;12.36;85.90;101333.38;5279767;28;20403;-65
2022/09/17 08:04:21;;;;;;;2.72;1.42;;;;;;;12.12;85.09;101323.00;5262033;28;20044;-67
2022/09/17 08:06:53;;;;;;;6.75;1.88;;;;;;;12.16;85.10;101326.00;5264038;28;20017;-66
2022/09/17 08:09:24;;;;;;;4.90;1.75;;;;;;;12.09;84.80;101331.91;5260417;28;20029;-68
2022/09/17 08:11:55;;;;;;;5.68;1.52;;;;;;;12.21;85.81;101336.28;5261047;28;20133;-67
2022/09/17 08:14:27;;;;;;;20.98;16.00;;;;;;;12.12;85.40;101328.56;5261072;28;20326;-67
2022/09/17 08:16:58;;;;;;;6.80;2.13;;;;;;;12.26;84.78;101330.69;5264423;28;20071;-68
2022/09/17 08:19:31;;;;;;;6.38;1.98;;;;;;;12.35;83.83;101331.72;5258594;28;20392;-67
2022/09/17 08:22:02;;;;;;;7.60;2.08;;;;;;;12.43;84.53;101335.84;5277042;28;20025;-67
2022/09/17 08:24:34;;;;;;;7.78;1.75;;;;;;;12.65;84.22;101336.19;5278399;28;20082;-67
2022/09/17 08:27:05;;;;;;;3.80;1.70;;;;;;;12.55;80.51;101345.47;5276861;28;20163;-68
2022/09/17 08:29:36;;;;;;;5.78;1.20;;;;;;;12.66;80.98;101328.69;5278193;28;20090;-67
2022/09/17 08:32:07;;;;;;;6.30;1.40;;;;;;;12.75;82.01;101326.91;5262283;28;20104;-66
2022/09/17 08:34:39;;;;;;;3.88;2.22;;;;;;;12.83;81.11;101326.28;5258261;28;20025;-66
2022/09/17 08:37:10;;;;;;;5.95;1.88;;;;;;;12.97;80.62;101335.63;5258240;28;20392;-66
2022/09/17 08:39:41;;;;;;;7.38;2.17;;;;;;;12.96;79.31;101333.97;5270384;28;20028;-67
2022/09/17 08:42:31;;;;;;;111.93;61.20;;;;;;;13.16;79.41;101338.47;5277293;28;20147;-67
2022/09/17 08:45:11;;;;;;;15.20;4.85;;;;;;;13.29;79.67;101341.72;5278516;28;20023;-67
2022/09/17 08:47:42;;;;;;;9.00;2.28;;;;;;;13.29;78.34;101336.13;5277490;28;20029;-67
2022/09/17 08:50:29;;;;;;;8.82;3.40;;;;;;;13.40;77.68;101340.50;5264063;28;20094;-67
2022/09/17 08:53:21;;;;;;;5.05;1.85;;;;;;;13.44;78.09;101347.09;5262431;28;20017;-67
2022/09/17 08:56:08;;;;;;;4.15;1.98;;;;;;;13.73;77.98;101341.47;5267884;28;20062;-67
2022/09/17 08:59:03;;;;;;;6.30;1.90;;;;;;;13.56;77.00;101344.72;5268995;28;20056;-66
2022/09/17 09:01:59;;;;;;;6.65;2.35;;;;;;;13.92;77.19;101352.63;5257724;28;20056;-67
2022/09/17 09:04:48;;;;;;;31.02;27.73;;;;;;;13.79;73.52;101345.84;5255801;28;20029;-65
2022/09/17 09:07:27;;;;;;;5.68;2.53;;;;;;;13.95;74.41;101342.84;5266163;28;20046;-68
2022/09/17 09:10:11;;;;;;;3.97;1.48;;;;;;;14.03;75.03;101347.72;5266061;28;20106;-67
2022/09/17 09:12:43;;;;;;;3.00;2.38;;;;;;;14.00;71.82;101349.16;5256918;28;20096;-67
2022/09/17 09:15:26;;;;;;;5.10;1.65;;;;;;;13.71;76.23;101352.06;5247961;28;20068;-67
2022/09/17 09:18:03;;;;;;;5.90;1.70;;;;;;;13.55;78.08;101347.81;5262232;28;20028;-66
2022/09/17 09:20:44;;;;;;;6.63;2.03;;;;;;;13.61;78.56;101355.00;5261929;28;20029;-67
2022/09/17 09:23:37;;;;;;;12.70;4.32;;;;;;;13.58;78.67;101350.03;5250916;28;20046;-66
2022/09/17 09:26:23;;;;;;;38.88;34.88;;;;;;;13.56;80.22;101350.31;5252225;28;20033;-66
2022/09/17 09:29:37;;;;;;;8.18;3.65;;;;;;;13.78;80.24;101351.69;5252349;28;20025;-67
2022/09/17 09:32:11;;;;;;;6.47;3.00;;;;;;;13.89;77.06;101348.47;5240764;28;20519;-67
2022/09/17 09:34:45;;;;;;;8.75;3.22;;;;;;;13.87;77.39;101347.94;5243371;28;20036;-66
2022/09/17 09:37:24;;;;;;;5.68;2.67;;;;;;;13.99;76.77;101343.91;5243639;28;20025;-67
2022/09/17 09:40:07;;;;;;;11.30;4.70;;;;;;;14.17;75.99;101345.88;5252456;28;20037;-66
2022/09/17 09:42:38;;;;;;;17.33;12.30;;;;;;;14.28;75.10;101352.94;5250987;28;20467;-67
2022/09/17 09:45:32;;;;;;;6.35;2.72;;;;;;;14.23;75.11;101352.19;5250136;28;20079;-65
2022/09/17 09:48:08;;;;;;;3.47;1.35;;;;;;;14.10;73.93;101357.38;5253783;28;20448;-67
2022/09/17 09:50:49;;;;;;;4.32;1.70;;;;;;;14.12;73.38;101355.13;5249152;28;20031;-67
2022/09/17 09:53:33;;;;;;;9.38;3.58;;;;;;;14.06;73.89;101347.97;5256616;28;20063;-66
2022/09/17 09:56:21;;;;;;;5.13;1.50;;;;;;;13.90;74.91;101352.91;5263668;28;20112;-66
2022/09/17 09:58:52;;;;;;;5.43;1.67;;;;;;;14.03;75.36;101356.09;5247708;28;20056;-66
2022/09/17 10:01:26;;;;;;;6.60;1.90;;;;;;;13.86;72.29;101360.25;5262995;28;20091;-68
2022/09/17 10:04:00;;;;;;;3.13;1.17;;;;;;;13.78;71.53;101360.06;5254502;28;20053;-68
2022/09/17 10:06:31;;;;;;;5.32;2.40;;;;;;;13.99;71.03;101366.22;5251453;28;20020;-69
2022/09/17 10:09:03;;;;;;;11.98;6.07;;;;;;;14.20;71.50;101362.00;5263004;28;20024;-69
2022/09/17 10:11:34;;;;;;;3.22;1.95;;;;;;;14.12;68.11;101363.50;5263890;28;20112;-69
2022/09/17 10:14:26;;;;;;;4.32;1.30;;;;;;;14.23;70.05;101355.81;5257670;28;20410;-69
2022/09/17 10:17:27;;;;;;;9.43;2.53;;;;;;;14.39;68.50;101349.97;5242961;28;20480;-68
2022/09/17 10:19:59;;;;;;;4.15;1.30;;;;;;;14.32;67.34;101350.38;5251848;28;20039;-69
2022/09/17 10:22:39;;;;;;;5.22;2.15;;;;;;;14.51;68.16;101353.16;5249668;28;20020;-69
2022/09/17 10:25:28;;;;;;;8.55;5.35;;;;;;;14.50;68.29;101352.31;5260593;28;20043;-70
2022/09/17 10:28:04;;;;;;;18.52;12.88;;;;;;;14.79;70.55;101349.34;5262503;28;20036;-69
2022/09/17 10:30:35;;;;;;;5.75;2.67;;;;;;;14.83;67.25;101340.34;5256749;28;20419;-68
2022/09/17 10:33:12;;;;;;;18.20;15.70;;;;;;;14.97;67.54;101350.41;5256969;28;20080;-68
2022/09/17 10:36:38;;;;;;;4.32;1.55;;;;;;;15.04;67.93;101340.81;5253839;28;20036;-67
2022/09/17 10:39:28;;;;;;;6.10;1.58;;;;;;;14.86;69.68;101343.38;5239880;28;20021;-69
2022/09/17 10:42:11;;;;;;;7.43;1.77;;;;;;;14.61;73.40;101357.75;5239947;28;20467;-68
2022/09/17 10:44:54;;;;;;;5.20;2.10;;;;;;;14.32;74.20;101359.56;5242849;28;20050;-67
2022/09/17 10:47:28;;;;;;;7.38;3.60;;;;;;;14.38;75.74;101345.53;5258150;28;20036;-68
2022/09/17 10:50:07;;;;;;;9.63;4.07;;;;;;;14.03;77.23;101356.09;5262332;28;20472;-68
2022/09/17 10:52:41;;;;;;;10.05;5.47;;;;;;;14.20;79.10;101361.16;5249174;28;20030;-67
2022/09/17 10:55:44;;;;;;;33.67;26.77;;;;;;;14.28;78.95;101352.94;5242331;28;20109;-69
2022/09/17 10:58:34;;;;;;;5.68;2.83;;;;;;;14.26;77.17;101357.97;5230433;28;20500;-67
2022/09/17 11:01:31;;;;;;;10.23;4.40;;;;;;;14.30;78.54;101347.88;5246363;28;20123;-70
2022/09/17 11:04:30;;;;;;;3.80;2.63;;;;;;;14.27;76.10;101345.72;5261974;28;20020;-67
2022/09/17 11:07:18;;;;;;;8.43;2.50;;;;;;;14.31;75.77;101352.31;5242362;28;20445;-67
2022/09/17 11:09:55;;;;;;;6.72;4.35;;;;;;;14.41;75.07;101342.16;5253131;28;20392;-68
2022/09/17 11:12:44;;;;;;;3.75;2.50;;;;;;;14.51;73.71;101341.97;5260899;28;20063;-68
2022/09/17 11:15:30;;;;;;;21.48;14.73;;;;;;;14.24;70.83;101342.66;5259956;28;20048;-68
2022/09/17 11:18:33;;;;;;;8.23;3.45;;;;;;;14.13;73.45;101328.88;5251639;28;20021;-67
2022/09/17 11:21:41;;;;;;;5.15;2.17;;;;;;;14.03;72.88;101340.19;5260134;28;20091;-69
2022/09/17 11:24:50;;;;;;;10.82;7.45;;;;;;;14.17;74.42;101334.69;5248573;28;20036;-68
2022/09/17 11:27:41;;;;;;;5.38;1.88;;;;;;;14.33;73.80;101327.75;5262370;28;20435;-68
2022/09/17 11:30:22;;;;;;;6.95;1.92;;;;;;;14.46;73.96;101337.31;5242098;28;20052;-69
2022/09/17 11:33:10;;;;;;;6.60;2.13;;;;;;;14.62;74.62;101328.72;5244546;28;20036;-69
2022/09/17 11:36:30;;;;;;;4.18;1.10;;;;;;;14.70;72.88;101331.66;5261721;28;20065;-69
2022/09/17 11:39:13;;;;;;;2.70;1.05;;;;;;;14.43;72.09;101325.94;5243804;28;20057;-69
2022/09/17 11:41:47;;;;;;;3.58;1.20;;;;;;;14.49;73.25;101330.28;5243608;28;20021;-69
2022/09/17 11:44:46;;;;;;;8.20;2.20;;;;;;;14.54;74.60;101321.84;5257105;28;20063;-68
2022/09/17 11:47:24;;;;;;;5.53;1.48;;;;;;;14.46;73.36;101319.75;5246844;28;20057;-69
2022/09/17 11:50:01;;;;;;;4.90;1.08;;;;;;;14.49;74.36;101324.69;5241301;28;20029;-71
2022/09/17 11:52:40;;;;;;;7.40;3.05;;;;;;;14.86;74.77;101334.16;5245789;28;20136;-68
2022/09/17 11:55:31;;;;;;;5.15;1.77;;;;;;;14.92;73.73;101335.72;5261190;28;20467;-68
2022/09/17 11:58:13;;;;;;;3.28;1.30;;;;;;;14.65;72.37;101333.69;5240901;28;20404;-69
2022/09/17 12:00:53;;;;;;;4.53;1.42;;;;;;;14.83;73.96;101330.03;5246157;28;20041;-69
2022/09/17 12:03:33;;;;;;;3.50;1.92;;;;;;;14.95;73.42;101326.72;5241517;28;20026;-69
2022/09/17 12:06:12;;;;;;;4.32;1.60;;;;;;;15.07;73.15;101334.63;5255541;28;20371;-69
2022/09/17 12:09:00;;;;;;;5.13;1.88;;;;;;;15.33;71.71;101326.56;5261507;28;20520;-69
2022/09/17 12:12:00;;;;;;;732.22;662.38;;;;;;;15.49;70.48;101319.50;5252252;28;20044;-69
2022/09/17 12:14:46;;;;;;;256.17;231.35;;;;;;;15.64;69.73;101315.56;5257304;28;20025;-70
2022/09/17 12:17:30;;;;;;;56.22;42.45;;;;;;;15.66;68.52;101307.69;5260570;28;20029;-71
2022/09/17 12:20:08;;;;;;;11.32;4.50;;;;;;;15.66;67.71;101311.31;5259330;28;20029;-69
2022/09/17 12:22:41;;;;;;;28.67;23.92;;;;;;;15.86;67.84;101300.88;5257916;28;20075;-69
2022/09/17 12:25:13;;;;;;;15.70;10.75;;;;;;;15.89;66.95;101308.63;5240442;28;20021;-69
2022/09/17 12:28:00;;;;;;;41.50;32.53;;;;;;;15.89;66.22;101300.22;5246015;28;20112;-67
2022/09/17 12:30:40;;;;;;;8.18;4.90;;;;;;;16.04;68.67;101305.47;5251839;28;20477;-68
2022/09/17 12:33:33;;;;;;;10.07;3.03;;;;;;;16.11;67.02;101295.84;5239024;28;20044;-68
2022/09/17 12:36:15;;;;;;;10.40;7.60;;;;;;;16.11;66.38;101296.66;5260238;28;20539;-67
2022/09/17 12:39:01;;;;;;;6.72;2.00;;;;;;;16.11;65.91;101296.66;5241592;28;20025;-68
2022/09/17 12:41:49;;;;;;;7.10;2.17;;;;;;;16.19;65.94;101300.66;5250610;28;20055;-68
2022/09/17 12:44:45;;;;;;;26.38;21.67;;;;;;;16.30;65.61;101300.06;5249356;28;20135;-70
2022/09/17 12:47:22;;;;;;;;;;;;;;;16.51;65.94;101289.22;5242893;28;20034;-67
2022/09/17 12:50:18;;;;;;;46.90;42.20;;;;;;;16.46;66.78;101286.56;5251714;28;19921;-67
2022/09/17 12:53:13;;;;;;;10.43;3.90;;;;;;;16.60;66.68;101283.66;5264706;28;20025;-69
2022/09/17 12:55:49;;;;;;;29.08;23.77;;;;;;;16.46;66.49;101291.31;5261070;28;20474;-68
2022/09/17 12:58:23;;;;;;;18.40;13.73;;;;;;;16.25;67.79;101279.78;5243451;28;20083;-68
2022/09/17 13:01:03;;;;;;;13.00;7.28;;;;;;;16.27;67.80;101283.09;5259544;28;20198;-69
2022/09/17 13:03:47;;;;;;;9.90;4.43;;;;;;;16.06;68.53;101282.78;5263436;28;20059;-67
2022/09/17 13:06:28;;;;;;;11.75;7.63;;;;;;;16.05;69.09;101290.34;5253371;28;20064;-68
2022/09/17 13:09:24;;;;;;;12.23;7.60;;;;;;;15.95;69.17;101282.19;5261200;28;20060;-69
2022/09/17 13:12:13;;;;;;;7.53;3.08;;;;;;;15.90;66.32;101285.13;5253899;28;20039;-69
2022/09/17 13:14:57;;;;;;;20.60;13.18;;;;;;;16.37;64.35;101282.84;5252834;28;20028;-69
2022/09/17 13:18:05;;;;;;;13.73;8.43;;;;;;;16.92;54.33;101265.75;5264152;28;20464;-70
2022/09/17 13:20:42;;;;;;;25.27;20.52;;;;;;;17.21;51.88;101271.97;5244380;28;20555;-69
2022/09/17 13:23:14;;;;;;;12.05;4.97;;;;;;;17.19;46.53;101280.69;5262573;28;20387;-68
2022/09/17 13:25:52;;;;;;;10.45;7.00;;;;;;;17.59;47.16;101275.06;5262996;28;20117;-67
2022/09/17 13:28:36;;;;;;;7.95;2.35;;;;;;;17.63;46.69;101278.84;5264942;28;20379;-68
2022/09/17 13:31:08;;;;;;;7.05;3.25;;;;;;;17.46;43.68;101275.97;5263042;28;20123;-66
2022/09/17 13:33:59;;;;;;;6.20;2.30;;;;;;;17.70;46.02;101275.56;5257821;28;20029;-68
2022/09/17 13:36:37;;;;;;;10.13;4.25;;;;;;;17.66;46.02;101282.97;5251145;28;20036;-67
2022/09/17 13:39:29;;;;;;;5.72;1.92;;;;;;;17.29;44.96;101262.75;5257584;28;20056;-69
2022/09/17 13:42:17;;;;;;;11.73;2.85;;;;;;;17.35;45.91;101270.69;5243603;28;20041;-69
2022/09/17 13:45:01;;;;;;;10.23;3.40;;;;;;;17.28;48.09;101272.31;5244387;28;20025;-70
2022/09/17 13:47:34;;;;;;;7.57;3.05;;;;;;;17.06;45.68;101264.81;5256081;28;20052;-69
2022/09/17 13:50:09;;;;;;;10.07;4.68;;;;;;;17.01;46.14;101267.78;5243749;28;20033;-69
2022/09/17 13:52:46;;;;;;;;;;;;;;;17.24;46.74;101269.34;5243307;28;20082;-70
2022/09/17 13:55:42;;;;;;;16.25;8.60;;;;;;;17.09;47.75;101275.38;5246368;28;19939;-68
2022/09/17 13:58:22;;;;;;;8.15;2.85;;;;;;;17.00;45.52;101274.50;5240140;28;20037;-69
2022/09/17 14:00:56;;;;;;;9.05;2.42;;;;;;;16.95;43.90;101272.69;5259637;28;20067;-68
2022/09/17 14:03:27;;;;;;;11.02;3.88;;;;;;;17.35;44.53;101279.09;5262881;28;20029;-69
2022/09/17 14:06:06;;;;;;;10.27;2.88;;;;;;;17.24;43.66;101286.16;5259448;28;20055;-68
2022/09/17 14:08:44;;;;;;;6.22;2.50;;;;;;;17.24;43.65;101286.16;5242557;28;20441;-68
2022/09/17 14:11:21;;;;;;;8.32;2.40;;;;;;;17.15;43.43;101288.09;5248264;28;20392;-70
2022/09/17 14:14:01;;;;;;;7.25;1.90;;;;;;;17.18;43.98;101281.84;5246821;28;20029;-67
2022/09/17 14:16:41;;;;;;;11.68;9.07;;;;;;;17.29;44.68;101279.59;5242834;28;20123;-67
2022/09/17 14:19:44;;;;;;;5.35;3.10;;;;;;;17.31;44.07;101283.72;5244417;28;20030;-68
2022/09/17 14:22:25;;;;;;;6.93;2.25;;;;;;;17.14;43.82;101292.88;5254821;28;20124;-69
2022/09/17 14:24:57;;;;;;;6.10;2.10;;;;;;;17.33;44.37;101298.25;5243569;28;20036;-66
2022/09/17 14:27:50;;;;;;;5.68;2.63;;;;;;;17.31;44.36;101294.94;5263001;28;20033;-66
2022/09/17 14:30:30;;;;;;;8.85;4.00;;;;;;;17.28;45.69;101284.38;5257357;28;20494;-66
2022/09/17 14:33:07;;;;;;;10.70;5.75;;;;;;;17.32;46.14;101301.34;5243196;28;20388;-66
2022/09/17 14:35:46;;;;;;;10.93;2.40;;;;;;;16.81;45.64;101291.56;5243102;28;20025;-65
2022/09/17 14:38:32;;;;;;;10.27;2.88;;;;;;;16.56;47.40;101307.03;5254443;28;20387;-67
2022/09/17 14:41:19;;;;;;;7.57;2.85;;;;;;;16.05;53.76;101326.72;5251462;28;20025;-67
2022/09/17 14:44:05;;;;;;;12.85;3.47;;;;;;;15.68;56.51;101321.38;5242257;28;20104;-68
2022/09/17 14:47:15;;;;;;;12.63;7.03;;;;;;;15.18;54.96;101324.88;5255149;28;20061;-69
2022/09/17 14:49:47;;;;;;;9.63;2.80;;;;;;;15.32;56.82;101330.50;5239056;28;20099;-69
2022/09/17 14:52:30;;;;;;;4.57;1.52;;;;;;;15.20;57.44;101323.44;5245054;28;20049;-70
2022/09/17 14:55:26;;;;;;;9.40;2.10;;;;;;;15.40;57.39;101325.00;5248787;28;20108;-69
2022/09/17 14:58:03;;;;;;;5.28;1.70;;;;;;;15.40;57.32;101313.00;5262390;28;20064;-70
2022/09/17 15:00:37;;;;;;;14.23;6.18;;;;;;;15.64;58.22;101321.16;5262395;28;20081;-68
2022/09/17 15:03:20;;;;;;;7.65;2.40;;;;;;;15.69;58.49;101323.88;5258175;28;20018;-66
2022/09/17 15:05:51;;;;;;;5.22;2.17;;;;;;;15.56;58.12;101305.94;5262663;28;20076;-68
2022/09/17 15:08:27;;;;;;;7.15;2.30;;;;;;;15.69;58.88;101307.09;5262968;28;20061;-68
2022/09/17 15:11:09;;;;;;;7.65;2.15;;;;;;;15.73;58.94;101316.53;5258503;28;20032;-69
2022/09/17 15:13:50;;;;;;;9.07;3.10;;;;;;;15.69;59.22;101311.84;5260895;28;20048;-71
2022/09/17 15:16:25;;;;;;;6.82;2.17;;;;;;;15.65;58.78;101298.50;5245739;28;20067;-70
2022/09/17 15:18:58;;;;;;;8.20;2.45;;;;;;;15.59;58.73;101312.88;5252593;28;20136;-69
2022/09/17 15:21:41;;;;;;;7.68;2.22;;;;;;;15.65;58.07;101311.66;5242581;28;20029;-68
2022/09/17 15:24:38;;;;;;;11.77;5.75;;;;;;;15.80;58.07;101305.75;5239155;28;20029;-70
2022/09/17 15:27:14;;;;;;;12.90;3.55;;;;;;;15.83;58.14;101298.69;5252751;28;20033;-69
2022/09/17 15:29:48;;;;;;;10.43;2.40;;;;;;;15.86;57.15;101309.25;5260544;28;20029;-70
2022/09/17 15:32:20;;;;;;;9.98;2.60;;;;;;;15.84;56.84;101303.13;5260134;28;20025;-70
2022/09/17 15:35:09;;;;;;;7.47;2.03;;;;;;;15.88;56.19;101304.19;5260645;28;20533;-69
2022/09/17 15:37:52;;;;;;;7.03;2.13;;;;;;;15.89;56.44;101308.63;5250311;28;20108;-73
2022/09/17 15:40:30;;;;;;;11.30;4.32;;;;;;;15.89;56.43;101308.63;5241641;28;20407;-74
2022/09/17 15:43:15;;;;;;;7.18;2.30;;;;;;;15.86;56.17;101306.44;5241848;28;20057;-73
2022/09/17 15:45:46;;;;;;;11.02;2.50;;;;;;;15.99;55.86;101304.75;5241614;28;20068;-73
2022/09/17 15:48:27;;;;;;;14.88;3.90;;;;;;;15.97;55.73;101312.63;5252150;28;20091;-74
2022/09/17 15:51:03;;;;;;;9.50;4.00;;;;;;;16.10;55.49;101297.78;5260768;28;20372;-71
2022/09/17 15:53:38;;;;;;;7.82;2.30;;;;;;;16.17;55.72;101314.13;5260226;28;20074;-70
2022/09/17 15:56:15;;;;;;;9.70;3.10;;;;;;;15.83;55.05;101316.31;5247955;28;20368;-69
2022/09/17 15:58:57;;;;;;;8.63;2.10;;;;;;;15.74;54.68;101312.56;5239783;28;20501;-70
2022/09/17 16:01:28;;;;;;;9.27;2.67;;;;;;;15.67;55.25;101323.31;5239847;28;20051;-70
2022/09/17 16:04:21;;;;;;;9.23;2.78;;;;;;;15.73;54.34;101310.94;5251421;28;20045;-69
2022/09/17 16:07:10;;;;;;;7.53;1.85;;;;;;;15.81;52.40;101306.56;5247387;28;20481;-68
2022/09/17 16:09:52;;;;;;;9.93;2.47;;;;;;;15.74;52.16;101320.97;5258275;28;20107;-68
2022/09/17 16:12:25;;;;;;;8.75;2.30;;;;;;;15.88;51.79;101323.75;5250913;28;20035;-68
2022/09/17 16:15:00;;;;;;;10.85;2.50;;;;;;;15.84;52.31;101325.50;5260973;28;20047;-69
2022/09/17 16:17:47;;;;;;;9.82;2.60;;;;;;;15.97;51.81;101319.06;5257284;28;20021;-68
2022/09/17 16:20:22;;;;;;;7.50;2.10;;;;;;;15.80;48.00;101321.72;5254708;28;20112;-66
2022/09/17 16:22:53;;;;;;;7.78;2.67;;;;;;;15.74;46.72;101322.94;5254327;28;20151;-66
2022/09/17 16:25:27;;;;;;;8.45;2.67;;;;;;;15.73;46.89;101329.69;5260594;28;20523;-66
2022/09/17 16:28:01;;;;;;;6.18;2.10;;;;;;;15.78;45.36;101332.38;5260513;28;20059;-69
2022/09/17 16:30:32;;;;;;;8.52;2.35;;;;;;;15.64;45.82;101333.16;5248482;28;20057;-68
2022/09/17 16:33:05;;;;;;;8.13;2.22;;;;;;;15.64;45.01;101335.13;5263838;28;20041;-68
2022/09/17 16:35:39;;;;;;;4.57;1.80;;;;;;;15.68;46.24;101335.34;5252395;28;20300;-67
2022/09/17 16:38:11;;;;;;;9.02;2.28;;;;;;;15.57;46.48;101341.16;5262080;28;20052;-67
2022/09/17 16:40:46;;;;;;;6.45;2.42;;;;;;;15.60;47.06;101340.53;5254418;28;20486;-67
2022/09/17 16:43:17;;;;;;;5.63;1.85;;;;;;;15.49;47.50;101341.88;5264093;28;20045;-68
2022/09/17 16:46:03;;;;;;;8.38;2.35;;;;;;;15.55;47.99;101345.41;5259302;28;20074;-68
2022/09/17 16:48:35;;;;;;;;;;;;;;;15.63;48.33;101350.25;5243828;28;20851;-69
2022/09/17 16:51:11;;;;;;;4.20;1.95;;;;;;;15.40;48.17;101346.53;5265356;28;19912;-68
2022/09/17 16:53:42;;;;;;;4.82;1.55;;;;;;;15.44;47.46;101347.56;5255403;28;20022;-68
2022/09/17 16:56:17;;;;;;;7.43;1.92;;;;;;;15.34;47.74;101348.63;5243511;28;20479;-67
2022/09/17 16:58:53;;;;;;;10.55;2.45;;;;;;;15.30;48.23;101349.53;5244874;28;20473;-67
2022/09/17 17:01:24;;;;;;;9.15;1.90;;;;;;;15.12;48.91;101354.91;5244889;28;20072;-67
2022/09/17 17:03:58;;;;;;;8.60;1.90;;;;;;;15.06;48.96;101352.50;5264058;28;20067;-67
2022/09/17 17:06:29;;;;;;;7.45;2.60;;;;;;;15.05;49.78;101350.84;5264754;28;20108;-67
2022/09/17 17:09:01;;;;;;;9.70;3.67;;;;;;;15.03;50.11;101358.69;5265351;28;20104;-67
2022/09/17 17:11:32;;;;;;;5.45;1.90;;;;;;;14.98;50.46;101356.81;5264609;28;20028;-67
2022/09/17 17:14:04;;;;;;;9.45;2.42;;;;;;;14.95;51.49;101354.66;5265054;28;20055;-67
2022/09/17 17:16:36;;;;;;;8.05;2.22;;;;;;;14.90;51.34;101358.34;5259175;28;20309;-67
2022/09/17 17:19:08;;;;;;;10.35;2.88;;;;;;;14.86;52.42;101354.53;5262318;28;20021;-66
2022/09/17 17:21:39;;;;;;;8.63;2.45;;;;;;;14.84;53.60;101369.94;5263296;28;20068;-68
2022/09/17 17:24:11;;;;;;;6.45;2.55;;;;;;;14.77;54.12;101365.56;5252854;28;20021;-68
2022/09/17 17:26:42;;;;;;;9.20;2.45;;;;;;;14.62;56.03;101374.19;5255800;28;20104;-68
2022/09/17 17:29:14;;;;;;;8.32;2.20;;;;;;;14.53;58.49;101378.81;5264781;28;20021;-68
2022/09/17 17:31:45;;;;;;;6.95;2.20;;;;;;;14.45;60.16;101379.47;5243709;28;20021;-68
